Time;durP1;ratioP1;P1;durP2;ratioP2;P2;SDS_P1;SDS_P2;PMS_P1;PMS_P2;Temp;Humidity;BMP_temperature;BMP_pressure;BME280_temperature;BME280_humidity;BME280_pressure;Samples;Min_cycle;Max_cycle;Signal;HPM_P1;HPM_P2
2021/03/20 00:00:51;;;;;;;1999.90;999.90;;;;;;;;;;4995475;28;20030;-82
2021/03/20 00:03:16;;;;;;;1999.90;999.90;;;;;;;;;;5002861;28;20413;-82
2021/03/20 00:05:42;;;;;;;1999.90;999.90;;;;;;;;;;5004418;28;20017;-82
2021/03/20 00:08:08;;;;;;;1999.90;999.90;;;;;;;;;;5004998;28;20030;-82
2021/03/20 00:10:34;;;;;;;1999.90;999.90;;;;;;;;;;5005833;28;20034;-82
2021/03/20 00:12:59;;;;;;;1999.90;999.90;;;;;;;;;;5004230;28;20096;-82
2021/03/20 00:15:25;;;;;;;1999.90;999.90;;;;;;;;;;5003544;28;20092;-82
2021/03/20 00:17:51;;;;;;;1999.90;999.90;;;;;;;;;;5009638;28;20080;-82
2021/03/20 00:20:37;;;;;;;1999.90;999.90;;;;;;;;;;5003164;28;20052;-82
2021/03/20 00:23:02;;;;;;;1999.90;999.90;;;;;;;;;;4999730;28;20050;-82
2021/03/20 00:25:28;;;;;;;1999.90;999.90;;;;;;;;;;5001614;28;20026;-82
2021/03/20 00:27:53;;;;;;;1999.90;999.90;;;;;;;;;;5006371;28;20108;-82
2021/03/20 00:30:20;;;;;;;1999.90;999.90;;;;;;;;;;4995542;28;20044;-82
2021/03/20 00:32:46;;;;;;;1999.90;999.90;;;;;;;;;;5002571;28;20050;-83
2021/03/20 00:35:12;;;;;;;1999.90;999.90;;;;;;;;;;5001538;28;20045;-82
2021/03/20 00:37:37;;;;;;;1999.90;999.90;;;;;;;;;;5004298;28;20068;-83
2021/03/20 00:40:04;;;;;;;1999.90;999.90;;;;;;;;;;5004394;28;20026;-82
2021/03/20 00:42:30;;;;;;;1999.90;999.90;;;;;;;;;;5000384;28;20076;-82
2021/03/20 00:44:55;;;;;;;1999.90;999.90;;;;;;;;;;4981347;28;20022;-82
2021/03/20 00:47:20;;;;;;;1999.90;999.90;;;;;;;;;;5000953;28;20045;-82
2021/03/20 00:49:46;;;;;;;1999.90;999.90;;;;;;;;;;4997029;28;20017;-81
2021/03/20 00:52:11;;;;;;;1999.90;999.90;;;;;;;;;;4998972;28;20512;-81
2021/03/20 00:54:36;;;;;;;1999.90;999.90;;;;;;;;;;4998344;28;20022;-82
2021/03/20 00:57:02;;;;;;;1999.90;999.90;;;;;;;;;;4999518;28;20535;-81
2021/03/20 00:59:27;;;;;;;1999.90;999.90;;;;;;;;;;5003198;28;20018;-81
2021/03/20 01:01:53;;;;;;;1999.90;999.90;;;;;;;;;;4998736;28;20491;-82
2021/03/20 01:04:19;;;;;;;1999.90;999.90;;;;;;;;;;5008097;28;20025;-81
2021/03/20 07:43:31;;;;;;;1999.90;999.90;;;;;;;;;;5158418;23;19930;-85
2021/03/20 07:46:06;;;;;;;1999.90;999.90;;;;;;;;;;4926478;29;20028;-74
2021/03/20 07:48:31;;;;;;;1999.90;999.90;;;;;;;;;;4924992;29;20071;-73
2021/03/20 07:50:57;;;;;;;1999.90;999.90;;;;;;;;;;4929068;29;20873;-74
2021/03/20 07:53:22;;;;;;;1999.90;999.90;;;;;;;;;;4924518;29;20503;-74
2021/03/20 07:56:03;;;;;;;1999.90;999.90;;;;;;;;;;4927318;29;20129;-74
2021/03/20 07:58:43;;;;;;;1999.90;999.90;;;;;;;;;;4914492;29;20051;-74
2021/03/20 08:01:14;;;;;;;1999.90;999.90;;;;;;;;;;4916006;29;20451;-74
2021/03/20 08:03:46;;;;;;;1999.90;999.90;;;;;;;;;;4918115;29;20032;-75
2021/03/20 08:06:14;;;;;;;1999.90;999.90;;;;;;;;;;4922363;29;20036;-75
2021/03/20 08:08:40;;;;;;;1999.90;999.90;;;;;;;;;;4927905;29;20031;-84
2021/03/20 08:11:13;;;;;;;1999.90;999.90;;;;;;;;;;4923931;29;20032;-83
2021/03/20 08:13:47;;;;;;;1999.90;999.90;;;;;;;;;;4928358;29;20036;-82
2021/03/20 08:16:14;;;;;;;1999.90;999.90;;;;;;;;;;4931550;29;20044;-84
2021/03/20 08:18:40;;;;;;;1999.90;999.90;;;;;;;;;;4925278;28;20535;-82
2021/03/20 08:21:15;;;;;;;1999.90;999.90;;;;;;;;;;4927600;29;20608;-83
2021/03/20 08:23:51;;;;;;;1999.90;999.90;;;;;;;;;;4922802;28;20031;-83
2021/03/20 08:26:24;;;;;;;1999.90;999.90;;;;;;;;;;4938041;29;20090;-83
2021/03/20 08:28:50;;;;;;;1999.90;999.90;;;;;;;;;;4923893;29;20051;-83
2021/03/20 08:31:30;;;;;;;1999.90;999.90;;;;;;;;;;4927527;29;20690;-84
2021/03/20 08:34:00;;;;;;;1999.90;999.90;;;;;;;;;;4926027;29;20075;-84
2021/03/20 08:36:48;;;;;;;1999.90;999.90;;;;;;;;;;4927502;29;20044;-84
2021/03/20 08:39:32;;;;;;;1999.90;999.90;;;;;;;;;;4919095;29;20127;-83
2021/03/20 08:42:10;;;;;;;1999.90;999.90;;;;;;;;;;4933001;29;20046;-82
2021/03/20 08:44:35;;;;;;;1999.90;999.90;;;;;;;;;;4925785;29;20031;-79
2021/03/20 08:47:07;;;;;;;1999.90;999.90;;;;;;;;;;4928910;29;20412;-82
2021/03/20 08:49:36;;;;;;;1999.90;999.90;;;;;;;;;;4924666;29;20035;-79
2021/03/20 08:52:17;;;;;;;1999.90;999.90;;;;;;;;;;4928000;29;20040;-80
2021/03/20 08:54:43;;;;;;;1999.90;999.90;;;;;;;;;;4931091;29;20028;-79
2021/03/20 08:57:16;;;;;;;1999.90;999.90;;;;;;;;;;4925256;29;20455;-80
2021/03/20 08:59:47;;;;;;;1999.90;999.90;;;;;;;;;;4926116;29;20036;-80
2021/03/20 09:02:22;;;;;;;1999.90;999.90;;;;;;;;;;4922148;29;20032;-80
2021/03/20 09:04:48;;;;;;;1999.90;999.90;;;;;;;;;;4925509;29;20111;-79
2021/03/20 09:07:22;;;;;;;1999.90;999.90;;;;;;;;;;4919653;29;20107;-81
2021/03/20 09:09:51;;;;;;;1999.90;999.90;;;;;;;;;;4915571;29;20040;-80
2021/03/20 09:12:37;;;;;;;1999.90;999.90;;;;;;;;;;4909758;29;20024;-79
2021/03/20 09:15:23;;;;;;;1999.90;999.90;;;;;;;;;;4928857;29;20698;-81
2021/03/20 09:17:49;;;;;;;1999.90;999.90;;;;;;;;;;4921777;29;20060;-80
2021/03/20 09:20:33;;;;;;;1999.90;999.90;;;;;;;;;;4924337;29;20020;-81
2021/03/20 09:22:59;;;;;;;1999.90;999.90;;;;;;;;;;4928524;29;22020;-79
2021/03/20 09:25:30;;;;;;;1999.90;999.90;;;;;;;;;;4930159;29;20024;-81
2021/03/20 09:27:58;;;;;;;1999.90;999.90;;;;;;;;;;4927905;29;20588;-80
2021/03/20 09:30:30;;;;;;;1999.90;999.90;;;;;;;;;;4922790;29;20032;-80
2021/03/20 09:32:56;;;;;;;1999.90;999.90;;;;;;;;;;4926536;29;20044;-80
2021/03/20 09:35:35;;;;;;;1999.90;999.90;;;;;;;;;;4927791;29;20395;-79
2021/03/20 09:38:02;;;;;;;1999.90;999.90;;;;;;;;;;4924939;29;20039;-80
2021/03/20 09:40:56;;;;;;;1999.90;999.90;;;;;;;;;;4929708;29;20034;-79
2021/03/20 09:43:37;;;;;;;1999.90;999.90;;;;;;;;;;4921330;29;20110;-80
2021/03/20 09:46:22;;;;;;;1999.90;999.90;;;;;;;;;;4922172;29;20110;-80
2021/03/20 09:48:47;;;;;;;1999.90;999.90;;;;;;;;;;4926775;29;20043;-81
2021/03/20 09:51:31;;;;;;;1999.90;999.90;;;;;;;;;;4921344;29;20020;-79
2021/03/20 09:54:17;;;;;;;1999.90;999.90;;;;;;;;;;4920087;29;20035;-80
2021/03/20 09:56:42;;;;;;;1999.90;999.90;;;;;;;;;;4924873;29;20399;-86
2021/03/20 09:59:07;;;;;;;1999.90;999.90;;;;;;;;;;4929320;29;20164;-85
2021/03/20 10:01:44;;;;;;;1999.90;999.90;;;;;;;;;;4929519;29;20032;-84
2021/03/20 10:04:12;;;;;;;1999.90;999.90;;;;;;;;;;4929619;29;20115;-86
2021/03/20 10:06:39;;;;;;;1999.90;999.90;;;;;;;;;;4939884;29;20023;-85
2021/03/20 10:09:08;;;;;;;1999.90;999.90;;;;;;;;;;4928428;29;20035;-84
2021/03/20 10:11:35;;;;;;;1999.90;999.90;;;;;;;;;;4931531;29;20016;-84
2021/03/20 10:14:02;;;;;;;1999.90;999.90;;;;;;;;;;4922348;29;20163;-85
2021/03/20 10:16:30;;;;;;;1999.90;999.90;;;;;;;;;;4921409;29;20416;-85
2021/03/20 10:18:58;;;;;;;1999.90;999.90;;;;;;;;;;4924153;29;20040;-85
2021/03/20 10:21:28;;;;;;;1999.90;999.90;;;;;;;;;;4928856;29;20024;-84
2021/03/20 10:23:57;;;;;;;1999.90;999.90;;;;;;;;;;4930562;29;20032;-84
2021/03/20 10:26:42;;;;;;;1999.90;999.90;;;;;;;;;;4930790;29;20132;-85
2021/03/20 10:29:22;;;;;;;1999.90;999.90;;;;;;;;;;4931453;29;20455;-86
2021/03/20 10:31:51;;;;;;;1999.90;999.90;;;;;;;;;;4929646;29;20123;-86
2021/03/20 10:34:17;;;;;;;1999.90;999.90;;;;;;;;;;4928605;29;20028;-85
2021/03/20 10:36:46;;;;;;;1999.90;999.90;;;;;;;;;;4930827;29;20040;-85
2021/03/20 10:39:26;;;;;;;1999.90;999.90;;;;;;;;;;4926591;29;20084;-86
2021/03/20 10:41:54;;;;;;;1999.90;999.90;;;;;;;;;;4935327;29;20501;-87
2021/03/20 10:44:20;;;;;;;1999.90;999.90;;;;;;;;;;4922448;29;20044;-85
2021/03/20 10:46:46;;;;;;;1999.90;999.90;;;;;;;;;;4928356;29;20049;-78
2021/03/20 10:49:22;;;;;;;1999.90;999.90;;;;;;;;;;4930909;29;20023;-77
2021/03/20 10:51:49;;;;;;;1999.90;999.90;;;;;;;;;;4931937;29;20038;-77
2021/03/20 10:54:17;;;;;;;1999.90;999.90;;;;;;;;;;4927991;29;20162;-77
2021/03/20 10:56:43;;;;;;;1999.90;999.90;;;;;;;;;;4926604;29;20492;-78
2021/03/20 10:59:18;;;;;;;1999.90;999.90;;;;;;;;;;4933225;28;20103;-78
2021/03/20 11:01:43;;;;;;;1999.90;999.90;;;;;;;;;;4923781;29;20148;-78
2021/03/20 11:04:25;;;;;;;1999.90;999.90;;;;;;;;;;4935897;29;20106;-78
2021/03/20 11:06:51;;;;;;;1999.90;999.90;;;;;;;;;;4919887;29;20039;-78
2021/03/20 11:09:22;;;;;;;1999.90;999.90;;;;;;;;;;4918434;29;20027;-78
2021/03/20 11:11:48;;;;;;;1999.90;999.90;;;;;;;;;;4925332;29;20481;-79
2021/03/20 11:14:17;;;;;;;1999.90;999.90;;;;;;;;;;4929684;29;20042;-79
2021/03/20 11:16:59;;;;;;;1999.90;999.90;;;;;;;;;;4922900;29;20039;-79
2021/03/20 11:19:24;;;;;;;1999.90;999.90;;;;;;;;;;4928556;29;20028;-79
2021/03/20 11:21:54;;;;;;;1999.90;999.90;;;;;;;;;;4920676;29;20030;-80
2021/03/20 11:24:26;;;;;;;1999.90;999.90;;;;;;;;;;4924962;29;20043;-79
2021/03/20 11:26:53;;;;;;;1999.90;999.90;;;;;;;;;;4926752;29;20078;-78
2021/03/20 11:29:23;;;;;;;1999.90;999.90;;;;;;;;;;4925425;29;20939;-78
2021/03/20 11:31:48;;;;;;;1999.90;999.90;;;;;;;;;;4923341;29;20031;-78
2021/03/20 11:34:18;;;;;;;1999.90;999.90;;;;;;;;;;4926075;29;20020;-78
2021/03/20 11:36:44;;;;;;;1999.90;999.90;;;;;;;;;;4927560;29;20047;-77
2021/03/20 11:39:12;;;;;;;1999.90;999.90;;;;;;;;;;4930673;29;20030;-78
2021/03/20 11:41:38;;;;;;;1999.90;999.90;;;;;;;;;;4923572;29;20054;-77
2021/03/20 11:44:14;;;;;;;1999.90;999.90;;;;;;;;;;4924344;29;20044;-79
2021/03/20 11:46:39;;;;;;;;;;;;;;;;;;4922117;29;20444;-78
2021/03/20 11:49:07;;;;;;;190.97;175.23;;;;;;;;;;4926261;29;20074;-78
2021/03/20 11:51:36;;;;;;;171.65;157.05;;;;;;;;;;4927451;29;20090;-78
2021/03/20 11:54:04;;;;;;;167.82;152.55;;;;;;;;;;4925349;29;20016;-78
2021/03/20 11:56:31;;;;;;;161.98;146.23;;;;;;;;;;4930443;29;20039;-77
2021/03/20 11:58:58;;;;;;;153.43;139.65;;;;;;;;;;4935415;29;20034;-77
2021/03/20 12:01:33;;;;;;;149.70;135.90;;;;;;;;;;4927118;29;20044;-78
2021/03/20 12:04:15;;;;;;;142.97;130.93;;;;;;;;;;4931063;29;20111;-78
2021/03/20 12:06:41;;;;;;;142.63;130.65;;;;;;;;;;4926871;29;20376;-75
2021/03/20 12:09:28;;;;;;;134.90;123.70;;;;;;;;;;4927234;29;20118;-77
2021/03/20 12:11:55;;;;;;;134.88;123.00;;;;;;;;;;4926706;29;20051;-77
2021/03/20 12:14:26;;;;;;;142.32;130.40;;;;;;;;;;4926361;29;20060;-78
2021/03/20 12:17:00;;;;;;;152.85;139.73;;;;;;;;;;4929105;29;20036;-75
2021/03/20 12:19:25;;;;;;;152.82;139.27;;;;;;;;;;4928904;29;20056;-75
2021/03/20 12:21:56;;;;;;;154.80;139.70;;;;;;;;;;4928444;29;20066;-76
2021/03/20 12:24:25;;;;;;;161.23;145.65;;;;;;;;;;4929382;29;20107;-76
2021/03/20 12:26:50;;;;;;;156.32;140.90;;;;;;;;;;4922317;29;20074;-76
2021/03/20 12:29:29;;;;;;;144.23;131.63;;;;;;;;;;4930904;29;20055;-76
2021/03/20 12:31:54;;;;;;;153.63;139.13;;;;;;;;;;4928334;29;20060;-77
2021/03/20 12:34:19;;;;;;;149.35;136.15;;;;;;;;;;4927305;29;20047;-76
2021/03/20 12:36:48;;;;;;;141.18;129.00;;;;;;;;;;4925082;29;20177;-76
2021/03/20 12:39:15;;;;;;;148.38;134.90;;;;;;;;;;4926954;29;20035;-86
2021/03/20 12:41:41;;;;;;;144.23;131.85;;;;;;;;;;4926989;29;20032;-82
2021/03/20 12:44:11;;;;;;;151.05;137.57;;;;;;;;;;4931402;29;20047;-88
2021/03/20 12:46:38;;;;;;;157.15;142.95;;;;;;;;;;4934944;29;20028;-86
2021/03/20 12:49:03;;;;;;;131.93;120.70;;;;;;;;;;4931241;29;20032;-79
2021/03/20 12:51:29;;;;;;;113.30;103.93;;;;;;;;;;4925116;29;20071;-86
2021/03/20 12:53:55;;;;;;;112.30;103.90;;;;;;;;;;4928815;29;20058;-85
2021/03/20 12:56:20;;;;;;;103.47;95.45;;;;;;;;;;4933136;29;20032;-81
2021/03/20 12:58:46;;;;;;;96.38;89.28;;;;;;;;;;4918337;29;20020;-87
2021/03/20 13:01:12;;;;;;;87.20;80.60;;;;;;;;;;4922072;29;20040;-86
2021/03/20 13:03:37;;;;;;;103.65;95.97;;;;;;;;;;4923813;29;20421;-85
2021/03/20 13:06:03;;;;;;;104.95;97.13;;;;;;;;;;4929391;28;20087;-87
2021/03/20 13:08:28;;;;;;;107.47;98.90;;;;;;;;;;4919942;29;20040;-85
2021/03/20 13:10:54;;;;;;;103.53;95.20;;;;;;;;;;4930537;29;20112;-79
2021/03/20 13:13:20;;;;;;;98.35;90.95;;;;;;;;;;4926441;29;20034;-79
2021/03/20 13:15:45;;;;;;;99.20;91.80;;;;;;;;;;4932165;29;20095;-79
